sensor_id;sensor_type;location;lat;lon;timestamp;temperature;humidity
25504;DHT22;13410;52.114;5.718;2024-02-16T00:01:00;15.60;99.90
25504;DHT22;13410;52.114;5.718;2024-02-16T00:03:26;15.60;99.90
25504;DHT22;13410;52.114;5.718;2024-02-16T00:05:52;15.60;99.90
25504;DHT22;13410;52.114;5.718;2024-02-16T00:08:18;15.70;99.90
25504;DHT22;13410;52.114;5.718;2024-02-16T00:10:47;15.70;99.90
25504;DHT22;13410;52.114;5.718;2024-02-16T00:13:13;15.80;99.90
25504;DHT22;13410;52.114;5.718;2024-02-16T00:15:39;15.80;99.90
25504;DHT22;13410;52.114;5.718;2024-02-16T00:18:05;15.70;99.90
25504;DHT22;13410;52.114;5.718;2024-02-16T00:20:31;15.70;99.90
25504;DHT22;13410;52.114;5.718;2024-02-16T00:22:58;15.80;99.90
25504;DHT22;13410;52.114;5.718;2024-02-16T00:25:25;15.90;99.90
25504;DHT22;13410;52.114;5.718;2024-02-16T00:27:51;15.80;99.90
25504;DHT22;13410;52.114;5.718;2024-02-16T00:30:18;15.80;99.90
25504;DHT22;13410;52.114;5.718;2024-02-16T00:32:44;15.90;99.90
25504;DHT22;13410;52.114;5.718;2024-02-16T00:35:17;15.90;99.90
25504;DHT22;13410;52.114;5.718;2024-02-16T00:37:43;15.90;99.90
25504;DHT22;13410;52.114;5.718;2024-02-16T00:40:09;15.80;99.90
25504;DHT22;13410;52.114;5.718;2024-02-16T00:42:35;15.70;99.90
25504;DHT22;13410;52.114;5.718;2024-02-16T00:45:00;15.90;99.90
25504;DHT22;13410;52.114;5.718;2024-02-16T00:47:27;15.90;99.90
25504;DHT22;13410;52.114;5.718;2024-02-16T00:49:53;15.90;99.90
25504;DHT22;13410;52.114;5.718;2024-02-16T00:52:19;15.80;99.90
25504;DHT22;13410;52.114;5.718;2024-02-16T00:54:44;15.80;99.90
25504;DHT22;13410;52.114;5.718;2024-02-16T00:57:12;15.80;99.90
25504;DHT22;13410;52.114;5.718;2024-02-16T00:59:39;15.60;99.90
25504;DHT22;13410;52.114;5.718;2024-02-16T01:02:05;15.70;99.90
25504;DHT22;13410;52.114;5.718;2024-02-16T01:04:32;15.90;99.90
25504;DHT22;13410;52.114;5.718;2024-02-16T01:06:59;15.90;99.90
25504;DHT22;13410;52.114;5.718;2024-02-16T01:09:25;15.90;99.90
25504;DHT22;13410;52.114;5.718;2024-02-16T01:11:50;15.80;99.90
25504;DHT22;13410;52.114;5.718;2024-02-16T01:14:16;15.80;99.90
25504;DHT22;13410;52.114;5.718;2024-02-16T01:16:41;15.80;99.90
25504;DHT22;13410;52.114;5.718;2024-02-16T01:19:07;15.80;99.90
25504;DHT22;13410;52.114;5.718;2024-02-16T01:21:33;15.80;99.90
25504;DHT22;13410;52.114;5.718;2024-02-16T01:23:59;15.70;99.90
25504;DHT22;13410;52.114;5.718;2024-02-16T01:26:29;15.50;99.90
25504;DHT22;13410;52.114;5.718;2024-02-16T01:28:55;15.60;99.90
25504;DHT22;13410;52.114;5.718;2024-02-16T01:31:20;15.60;99.90
25504;DHT22;13410;52.114;5.718;2024-02-16T01:33:46;15.70;99.90
25504;DHT22;13410;52.114;5.718;2024-02-16T01:36:11;15.80;99.90
25504;DHT22;13410;52.114;5.718;2024-02-16T01:38:37;15.70;99.90
25504;DHT22;13410;52.114;5.718;2024-02-16T01:41:04;15.70;99.90
25504;DHT22;13410;52.114;5.718;2024-02-16T01:43:30;15.60;99.90
25504;DHT22;13410;52.114;5.718;2024-02-16T01:45:56;15.70;99.90
25504;DHT22;13410;52.114;5.718;2024-02-16T01:48:24;15.60;99.90
25504;DHT22;13410;52.114;5.718;2024-02-16T01:50:50;15.50;99.90
25504;DHT22;13410;52.114;5.718;2024-02-16T01:53:16;15.50;99.90
25504;DHT22;13410;52.114;5.718;2024-02-16T01:55:45;15.50;99.90
25504;DHT22;13410;52.114;5.718;2024-02-16T01:58:11;15.60;99.90
25504;DHT22;13410;52.114;5.718;2024-02-16T02:00:37;15.60;99.90
25504;DHT22;13410;52.114;5.718;2024-02-16T02:03:03;15.50;99.90
25504;DHT22;13410;52.114;5.718;2024-02-16T02:05:29;15.50;99.90
25504;DHT22;13410;52.114;5.718;2024-02-16T02:07:56;15.50;99.90
25504;DHT22;13410;52.114;5.718;2024-02-16T02:10:23;15.60;99.90
25504;DHT22;13410;52.114;5.718;2024-02-16T02:12:48;15.60;99.90
25504;DHT22;13410;52.114;5.718;2024-02-16T02:15:14;15.70;99.90
25504;DHT22;13410;52.114;5.718;2024-02-16T02:17:40;15.60;99.90
25504;DHT22;13410;52.114;5.718;2024-02-16T02:20:06;15.50;99.90
25504;DHT22;13410;52.114;5.718;2024-02-16T02:22:38;15.70;99.90
25504;DHT22;13410;52.114;5.718;2024-02-16T02:25:04;15.90;99.90
25504;DHT22;13410;52.114;5.718;2024-02-16T02:27:30;15.60;99.90
25504;DHT22;13410;52.114;5.718;2024-02-16T02:29:56;15.60;99.90
25504;DHT22;13410;52.114;5.718;2024-02-16T02:32:22;15.50;99.90
25504;DHT22;13410;52.114;5.718;2024-02-16T02:34:47;15.70;99.90
25504;DHT22;13410;52.114;5.718;2024-02-16T02:37:13;15.60;99.90
25504;DHT22;13410;52.114;5.718;2024-02-16T02:39:38;15.70;99.90
25504;DHT22;13410;52.114;5.718;2024-02-16T02:42:06;15.60;99.90
25504;DHT22;13410;52.114;5.718;2024-02-16T02:44:33;15.50;99.90
25504;DHT22;13410;52.114;5.718;2024-02-16T02:46:59;15.60;99.90
25504;DHT22;13410;52.114;5.718;2024-02-16T02:49:25;15.60;99.90
25504;DHT22;13410;52.114;5.718;2024-02-16T02:51:50;15.80;99.90
25504;DHT22;13410;52.114;5.718;2024-02-16T02:54:16;15.90;99.90
25504;DHT22;13410;52.114;5.718;2024-02-16T02:56:43;15.80;99.90
25504;DHT22;13410;52.114;5.718;2024-02-16T02:59:09;15.70;99.90
25504;DHT22;13410;52.114;5.718;2024-02-16T03:01:36;15.80;99.90
25504;DHT22;13410;52.114;5.718;2024-02-16T03:04:03;15.90;99.90
25504;DHT22;13410;52.114;5.718;2024-02-16T03:06:28;15.90;99.90
25504;DHT22;13410;52.114;5.718;2024-02-16T03:08:54;15.80;99.90
25504;DHT22;13410;52.114;5.718;2024-02-16T03:11:20;15.90;99.90
25504;DHT22;13410;52.114;5.718;2024-02-16T03:13:45;16.10;99.90
25504;DHT22;13410;52.114;5.718;2024-02-16T03:16:11;16.00;99.90
25504;DHT22;13410;52.114;5.718;2024-02-16T03:18:38;16.00;99.90
25504;DHT22;13410;52.114;5.718;2024-02-16T03:21:04;15.90;99.90
25504;DHT22;13410;52.114;5.718;2024-02-16T03:23:30;15.80;99.90
25504;DHT22;13410;52.114;5.718;2024-02-16T03:25:56;15.90;99.90
25504;DHT22;13410;52.114;5.718;2024-02-16T03:28:21;15.80;99.90
25504;DHT22;13410;52.114;5.718;2024-02-16T03:30:47;15.90;99.90
25504;DHT22;13410;52.114;5.718;2024-02-16T03:33:13;15.80;99.90
25504;DHT22;13410;52.114;5.718;2024-02-16T03:35:38;15.80;99.90
25504;DHT22;13410;52.114;5.718;2024-02-16T03:38:05;15.80;99.90
25504;DHT22;13410;52.114;5.718;2024-02-16T03:40:32;15.70;99.90
25504;DHT22;13410;52.114;5.718;2024-02-16T03:42:58;15.80;99.90
25504;DHT22;13410;52.114;5.718;2024-02-16T03:45:24;15.80;99.90
25504;DHT22;13410;52.114;5.718;2024-02-16T03:47:53;15.80;99.90
25504;DHT22;13410;52.114;5.718;2024-02-16T03:50:20;15.80;99.90
25504;DHT22;13410;52.114;5.718;2024-02-16T03:52:46;15.90;99.90
25504;DHT22;13410;52.114;5.718;2024-02-16T03:55:11;15.80;99.90
25504;DHT22;13410;52.114;5.718;2024-02-16T03:57:37;15.90;99.90
25504;DHT22;13410;52.114;5.718;2024-02-16T04:00:03;15.90;99.90
25504;DHT22;13410;52.114;5.718;2024-02-16T04:02:31;15.80;99.90
25504;DHT22;13410;52.114;5.718;2024-02-16T04:04:57;15.80;99.90
25504;DHT22;13410;52.114;5.718;2024-02-16T04:07:22;15.80;99.90
25504;DHT22;13410;52.114;5.718;2024-02-16T04:09:48;16.00;99.90
25504;DHT22;13410;52.114;5.718;2024-02-16T04:12:13;15.90;99.90
25504;DHT22;13410;52.114;5.718;2024-02-16T04:14:40;15.80;99.90
25504;DHT22;13410;52.114;5.718;2024-02-16T04:17:07;15.80;99.90
25504;DHT22;13410;52.114;5.718;2024-02-16T04:19:32;15.70;99.90
25504;DHT22;13410;52.114;5.718;2024-02-16T04:21:58;15.70;99.90
25504;DHT22;13410;52.114;5.718;2024-02-16T04:24:24;15.40;99.90
25504;DHT22;13410;52.114;5.718;2024-02-16T04:26:49;15.50;99.90
25504;DHT22;13410;52.114;5.718;2024-02-16T04:29:15;15.50;99.90
25504;DHT22;13410;52.114;5.718;2024-02-16T04:31:42;15.70;99.90
25504;DHT22;13410;52.114;5.718;2024-02-16T04:34:08;15.70;99.90
25504;DHT22;13410;52.114;5.718;2024-02-16T04:36:34;15.60;99.90
25504;DHT22;13410;52.114;5.718;2024-02-16T04:39:00;15.50;99.90
25504;DHT22;13410;52.114;5.718;2024-02-16T04:41:25;15.50;99.90
25504;DHT22;13410;52.114;5.718;2024-02-16T04:43:52;15.50;99.90
25504;DHT22;13410;52.114;5.718;2024-02-16T04:46:18;15.50;99.90
25504;DHT22;13410;52.114;5.718;2024-02-16T04:48:45;15.60;99.90
25504;DHT22;13410;52.114;5.718;2024-02-16T04:51:11;15.50;99.90
25504;DHT22;13410;52.114;5.718;2024-02-16T04:53:37;15.30;99.90
25504;DHT22;13410;52.114;5.718;2024-02-16T04:56:03;15.20;99.90
25504;DHT22;13410;52.114;5.718;2024-02-16T04:58:30;15.30;99.90
25504;DHT22;13410;52.114;5.718;2024-02-16T05:00:57;15.30;99.90
25504;DHT22;13410;52.114;5.718;2024-02-16T05:03:23;15.40;99.90
25504;DHT22;13410;52.114;5.718;2024-02-16T05:05:50;15.40;99.90
25504;DHT22;13410;52.114;5.718;2024-02-16T05:08:17;15.40;99.90
25504;DHT22;13410;52.114;5.718;2024-02-16T05:10:42;15.50;99.90
25504;DHT22;13410;52.114;5.718;2024-02-16T05:13:08;15.60;99.90
25504;DHT22;13410;52.114;5.718;2024-02-16T05:15:35;15.50;99.90
25504;DHT22;13410;52.114;5.718;2024-02-16T05:18:01;15.50;99.90
25504;DHT22;13410;52.114;5.718;2024-02-16T05:20:26;15.60;99.90
25504;DHT22;13410;52.114;5.718;2024-02-16T05:22:52;15.50;99.90
25504;DHT22;13410;52.114;5.718;2024-02-16T05:25:18;15.50;99.90
25504;DHT22;13410;52.114;5.718;2024-02-16T05:27:44;15.50;99.90
25504;DHT22;13410;52.114;5.718;2024-02-16T05:30:11;15.50;99.90
25504;DHT22;13410;52.114;5.718;2024-02-16T05:32:38;15.60;99.90
25504;DHT22;13410;52.114;5.718;2024-02-16T05:35:05;15.70;99.90
25504;DHT22;13410;52.114;5.718;2024-02-16T05:37:47;15.70;99.90
25504;DHT22;13410;52.114;5.718;2024-02-16T05:40:20;15.70;99.90
25504;DHT22;13410;52.114;5.718;2024-02-16T05:43:11;15.50;99.90
25504;DHT22;13410;52.114;5.718;2024-02-16T05:45:37;15.50;99.90
25504;DHT22;13410;52.114;5.718;2024-02-16T05:48:03;15.50;99.90
25504;DHT22;13410;52.114;5.718;2024-02-16T05:50:29;15.60;99.90
25504;DHT22;13410;52.114;5.718;2024-02-16T05:52:54;15.60;99.90
25504;DHT22;13410;52.114;5.718;2024-02-16T05:55:20;15.70;99.90
25504;DHT22;13410;52.114;5.718;2024-02-16T05:57:46;15.60;99.90
25504;DHT22;13410;52.114;5.718;2024-02-16T06:00:12;15.70;99.90
25504;DHT22;13410;52.114;5.718;2024-02-16T06:02:38;15.70;99.90
25504;DHT22;13410;52.114;5.718;2024-02-16T06:05:04;15.80;99.90
25504;DHT22;13410;52.114;5.718;2024-02-16T06:07:31;15.80;99.90
25504;DHT22;13410;52.114;5.718;2024-02-16T06:09:57;15.90;99.90
25504;DHT22;13410;52.114;5.718;2024-02-16T06:12:23;15.80;99.90
25504;DHT22;13410;52.114;5.718;2024-02-16T06:14:49;15.80;99.90
25504;DHT22;13410;52.114;5.718;2024-02-16T06:17:15;15.80;99.90
25504;DHT22;13410;52.114;5.718;2024-02-16T06:19:41;16.00;99.90
25504;DHT22;13410;52.114;5.718;2024-02-16T06:22:09;16.10;99.90
25504;DHT22;13410;52.114;5.718;2024-02-16T06:24:35;16.00;99.90
25504;DHT22;13410;52.114;5.718;2024-02-16T06:27:01;15.90;99.90
25504;DHT22;13410;52.114;5.718;2024-02-16T06:29:26;15.90;99.90
25504;DHT22;13410;52.114;5.718;2024-02-16T06:31:52;16.00;99.90
25504;DHT22;13410;52.114;5.718;2024-02-16T06:34:18;16.00;99.90
25504;DHT22;13410;52.114;5.718;2024-02-16T06:36:45;16.10;99.90
25504;DHT22;13410;52.114;5.718;2024-02-16T06:39:11;16.00;99.90
25504;DHT22;13410;52.114;5.718;2024-02-16T06:41:37;16.10;99.90
25504;DHT22;13410;52.114;5.718;2024-02-16T06:44:04;16.20;99.90
25504;DHT22;13410;52.114;5.718;2024-02-16T06:46:31;16.20;99.90
25504;DHT22;13410;52.114;5.718;2024-02-16T06:48:56;16.20;99.90
25504;DHT22;13410;52.114;5.718;2024-02-16T06:51:23;16.20;99.90
25504;DHT22;13410;52.114;5.718;2024-02-16T06:53:49;16.20;99.90
25504;DHT22;13410;52.114;5.718;2024-02-16T06:56:15;16.30;99.90
25504;DHT22;13410;52.114;5.718;2024-02-16T06:58:42;16.30;99.90
25504;DHT22;13410;52.114;5.718;2024-02-16T07:01:07;16.20;99.90
25504;DHT22;13410;52.114;5.718;2024-02-16T07:03:34;16.30;99.90
25504;DHT22;13410;52.114;5.718;2024-02-16T07:06:02;16.40;99.90
25504;DHT22;13410;52.114;5.718;2024-02-16T07:08:28;16.50;99.90
25504;DHT22;13410;52.114;5.718;2024-02-16T07:10:54;16.70;99.90
25504;DHT22;13410;52.114;5.718;2024-02-16T07:13:22;16.60;99.90
25504;DHT22;13410;52.114;5.718;2024-02-16T07:15:49;16.70;99.90
25504;DHT22;13410;52.114;5.718;2024-02-16T07:18:15;16.50;99.90
25504;DHT22;13410;52.114;5.718;2024-02-16T07:20:42;16.50;99.90
25504;DHT22;13410;52.114;5.718;2024-02-16T07:23:08;16.50;99.90
25504;DHT22;13410;52.114;5.718;2024-02-16T07:25:36;16.50;99.90
25504;DHT22;13410;52.114;5.718;2024-02-16T07:28:01;16.60;99.90
25504;DHT22;13410;52.114;5.718;2024-02-16T07:30:29;16.60;99.90
25504;DHT22;13410;52.114;5.718;2024-02-16T07:32:54;16.70;99.90
25504;DHT22;13410;52.114;5.718;2024-02-16T07:35:20;16.70;99.90
25504;DHT22;13410;52.114;5.718;2024-02-16T07:37:46;16.90;99.90
25504;DHT22;13410;52.114;5.718;2024-02-16T07:40:13;16.80;99.90
25504;DHT22;13410;52.114;5.718;2024-02-16T07:42:39;16.90;99.90
25504;DHT22;13410;52.114;5.718;2024-02-16T07:45:08;16.80;99.90
25504;DHT22;13410;52.114;5.718;2024-02-16T07:47:35;16.70;99.90
25504;DHT22;13410;52.114;5.718;2024-02-16T07:50:00;16.80;99.90
25504;DHT22;13410;52.114;5.718;2024-02-16T07:52:26;16.70;99.90
25504;DHT22;13410;52.114;5.718;2024-02-16T07:54:52;16.70;99.90
25504;DHT22;13410;52.114;5.718;2024-02-16T07:57:17;16.80;99.90
25504;DHT22;13410;52.114;5.718;2024-02-16T07:59:43;16.80;99.90
25504;DHT22;13410;52.114;5.718;2024-02-16T08:02:10;16.90;99.90
25504;DHT22;13410;52.114;5.718;2024-02-16T08:04:41;17.00;99.90
25504;DHT22;13410;52.114;5.718;2024-02-16T08:07:07;16.80;99.90
25504;DHT22;13410;52.114;5.718;2024-02-16T08:09:33;16.80;99.90
25504;DHT22;13410;52.114;5.718;2024-02-16T08:11:59;16.90;99.90
25504;DHT22;13410;52.114;5.718;2024-02-16T08:14:26;16.80;99.90
25504;DHT22;13410;52.114;5.718;2024-02-16T08:16:52;17.00;99.90
25504;DHT22;13410;52.114;5.718;2024-02-16T08:19:17;16.90;99.90
25504;DHT22;13410;52.114;5.718;2024-02-16T08:21:43;16.90;99.90
25504;DHT22;13410;52.114;5.718;2024-02-16T08:24:09;17.00;99.90
25504;DHT22;13410;52.114;5.718;2024-02-16T08:26:36;17.00;99.90
25504;DHT22;13410;52.114;5.718;2024-02-16T08:29:02;17.10;99.90
25504;DHT22;13410;52.114;5.718;2024-02-16T08:31:27;17.00;99.90
25504;DHT22;13410;52.114;5.718;2024-02-16T08:33:53;17.10;99.90
25504;DHT22;13410;52.114;5.718;2024-02-16T08:36:18;17.00;99.90
25504;DHT22;13410;52.114;5.718;2024-02-16T08:38:46;17.20;99.90
25504;DHT22;13410;52.114;5.718;2024-02-16T08:41:12;17.10;99.90
25504;DHT22;13410;52.114;5.718;2024-02-16T08:43:39;17.30;99.90
25504;DHT22;13410;52.114;5.718;2024-02-16T08:46:06;17.30;99.90
25504;DHT22;13410;52.114;5.718;2024-02-16T08:48:33;17.40;99.90
25504;DHT22;13410;52.114;5.718;2024-02-16T08:51:04;17.30;99.90
25504;DHT22;13410;52.114;5.718;2024-02-16T08:53:32;17.40;99.90
25504;DHT22;13410;52.114;5.718;2024-02-16T08:55:58;17.60;99.90
25504;DHT22;13410;52.114;5.718;2024-02-16T08:58:23;17.60;99.90
25504;DHT22;13410;52.114;5.718;2024-02-16T09:00:49;17.80;99.90
25504;DHT22;13410;52.114;5.718;2024-02-16T09:03:15;17.80;99.90
25504;DHT22;13410;52.114;5.718;2024-02-16T09:05:42;18.00;99.90
25504;DHT22;13410;52.114;5.718;2024-02-16T09:08:09;18.00;99.90
25504;DHT22;13410;52.114;5.718;2024-02-16T09:10:36;18.20;99.90
25504;DHT22;13410;52.114;5.718;2024-02-16T09:13:08;18.20;99.90
25504;DHT22;13410;52.114;5.718;2024-02-16T09:15:40;18.30;99.90
25504;DHT22;13410;52.114;5.718;2024-02-16T09:18:07;18.20;99.90
25504;DHT22;13410;52.114;5.718;2024-02-16T09:20:33;18.20;99.90
25504;DHT22;13410;52.114;5.718;2024-02-16T09:22:58;18.40;99.90
25504;DHT22;13410;52.114;5.718;2024-02-16T09:25:24;18.60;99.90
25504;DHT22;13410;52.114;5.718;2024-02-16T09:27:51;18.70;99.90
25504;DHT22;13410;52.114;5.718;2024-02-16T09:30:18;18.80;99.90
25504;DHT22;13410;52.114;5.718;2024-02-16T09:32:43;18.90;99.90
25504;DHT22;13410;52.114;5.718;2024-02-16T09:35:09;18.80;99.90
25504;DHT22;13410;52.114;5.718;2024-02-16T09:37:35;18.90;99.90
25504;DHT22;13410;52.114;5.718;2024-02-16T09:40:04;19.00;99.90
25504;DHT22;13410;52.114;5.718;2024-02-16T09:42:30;19.10;99.90
25504;DHT22;13410;52.114;5.718;2024-02-16T09:44:57;19.10;99.90
25504;DHT22;13410;52.114;5.718;2024-02-16T09:47:24;18.90;99.90
25504;DHT22;13410;52.114;5.718;2024-02-16T09:49:54;18.90;99.90
25504;DHT22;13410;52.114;5.718;2024-02-16T09:52:21;18.70;99.90
25504;DHT22;13410;52.114;5.718;2024-02-16T09:54:48;18.70;99.90
25504;DHT22;13410;52.114;5.718;2024-02-16T09:57:17;18.70;99.90
25504;DHT22;13410;52.114;5.718;2024-02-16T09:59:43;18.80;99.90
25504;DHT22;13410;52.114;5.718;2024-02-16T10:02:09;18.60;99.90
25504;DHT22;13410;52.114;5.718;2024-02-16T10:04:34;18.50;99.90
25504;DHT22;13410;52.114;5.718;2024-02-16T10:07:00;18.50;99.90
25504;DHT22;13410;52.114;5.718;2024-02-16T10:09:27;18.60;99.90
25504;DHT22;13410;52.114;5.718;2024-02-16T10:11:57;18.50;99.90
25504;DHT22;13410;52.114;5.718;2024-02-16T10:14:23;18.30;99.90
25504;DHT22;13410;52.114;5.718;2024-02-16T10:17:04;18.40;99.90
25504;DHT22;13410;52.114;5.718;2024-02-16T10:19:32;18.20;99.90
25504;DHT22;13410;52.114;5.718;2024-02-16T10:22:12;18.10;99.90
25504;DHT22;13410;52.114;5.718;2024-02-16T10:24:38;18.20;99.90
25504;DHT22;13410;52.114;5.718;2024-02-16T10:27:14;18.00;99.90
25504;DHT22;13410;52.114;5.718;2024-02-16T10:29:44;18.10;99.90
25504;DHT22;13410;52.114;5.718;2024-02-16T10:32:12;18.10;99.90
25504;DHT22;13410;52.114;5.718;2024-02-16T10:34:39;18.10;99.90
25504;DHT22;13410;52.114;5.718;2024-02-16T10:37:08;18.00;99.90
25504;DHT22;13410;52.114;5.718;2024-02-16T10:39:35;18.00;99.90
25504;DHT22;13410;52.114;5.718;2024-02-16T10:42:01;18.20;99.90
25504;DHT22;13410;52.114;5.718;2024-02-16T10:44:28;18.00;99.90
25504;DHT22;13410;52.114;5.718;2024-02-16T10:46:55;18.00;99.90
25504;DHT22;13410;52.114;5.718;2024-02-16T10:49:23;18.00;99.90
25504;DHT22;13410;52.114;5.718;2024-02-16T10:51:55;17.80;99.90
25504;DHT22;13410;52.114;5.718;2024-02-16T10:54:27;17.50;99.90
25504;DHT22;13410;52.114;5.718;2024-02-16T10:56:53;17.50;99.90
25504;DHT22;13410;52.114;5.718;2024-02-16T10:59:19;17.60;99.90
25504;DHT22;13410;52.114;5.718;2024-02-16T11:01:45;17.60;99.90
25504;DHT22;13410;52.114;5.718;2024-02-16T11:04:17;17.50;99.90
25504;DHT22;13410;52.114;5.718;2024-02-16T11:06:54;17.50;99.90
25504;DHT22;13410;52.114;5.718;2024-02-16T11:09:35;17.40;99.90
25504;DHT22;13410;52.114;5.718;2024-02-16T11:12:02;17.40;99.90
25504;DHT22;13410;52.114;5.718;2024-02-16T11:14:47;17.20;99.90
25504;DHT22;13410;52.114;5.718;2024-02-16T11:17:22;17.10;99.90
25504;DHT22;13410;52.114;5.718;2024-02-16T11:19:49;17.00;99.90
25504;DHT22;13410;52.114;5.718;2024-02-16T11:22:18;17.00;99.90
25504;DHT22;13410;52.114;5.718;2024-02-16T11:27:11;16.90;99.90
25504;DHT22;13410;52.114;5.718;2024-02-16T11:29:38;16.90;99.90
25504;DHT22;13410;52.114;5.718;2024-02-16T11:32:07;17.00;99.90
25504;DHT22;13410;52.114;5.718;2024-02-16T11:34:33;16.90;99.90
25504;DHT22;13410;52.114;5.718;2024-02-16T11:37:03;16.80;99.90
25504;DHT22;13410;52.114;5.718;2024-02-16T11:39:30;16.90;99.90
25504;DHT22;13410;52.114;5.718;2024-02-16T11:42:07;17.10;99.90
25504;DHT22;13410;52.114;5.718;2024-02-16T11:44:36;17.20;99.90
25504;DHT22;13410;52.114;5.718;2024-02-16T11:47:10;17.20;99.90
25504;DHT22;13410;52.114;5.718;2024-02-16T11:49:39;17.00;99.90
25504;DHT22;13410;52.114;5.718;2024-02-16T11:52:07;17.10;99.90
25504;DHT22;13410;52.114;5.718;2024-02-16T11:54:33;16.90;99.90
25504;DHT22;13410;52.114;5.718;2024-02-16T11:56:58;16.90;99.90
25504;DHT22;13410;52.114;5.718;2024-02-16T11:59:24;17.00;99.90
25504;DHT22;13410;52.114;5.718;2024-02-16T12:01:52;17.00;99.90
25504;DHT22;13410;52.114;5.718;2024-02-16T12:04:26;17.10;99.90
25504;DHT22;13410;52.114;5.718;2024-02-16T12:09:22;17.30;99.90
25504;DHT22;13410;52.114;5.718;2024-02-16T12:11:48;17.40;99.90
25504;DHT22;13410;52.114;5.718;2024-02-16T12:14:16;17.50;99.90
25504;DHT22;13410;52.114;5.718;2024-02-16T12:16:41;17.70;99.90
25504;DHT22;13410;52.114;5.718;2024-02-16T12:19:07;17.60;99.90
25504;DHT22;13410;52.114;5.718;2024-02-16T12:21:36;17.60;99.90
25504;DHT22;13410;52.114;5.718;2024-02-16T12:24:03;17.70;99.90
25504;DHT22;13410;52.114;5.718;2024-02-16T12:26:29;17.70;99.90
25504;DHT22;13410;52.114;5.718;2024-02-16T12:28:54;17.60;99.90
25504;DHT22;13410;52.114;5.718;2024-02-16T12:31:21;17.70;99.90
25504;DHT22;13410;52.114;5.718;2024-02-16T12:33:47;17.60;99.90
25504;DHT22;13410;52.114;5.718;2024-02-16T12:36:13;17.50;99.90
25504;DHT22;13410;52.114;5.718;2024-02-16T12:38:40;17.30;99.90
25504;DHT22;13410;52.114;5.718;2024-02-16T12:41:05;17.30;99.90
25504;DHT22;13410;52.114;5.718;2024-02-16T12:43:31;17.30;99.90
25504;DHT22;13410;52.114;5.718;2024-02-16T12:45:57;17.20;99.90
25504;DHT22;13410;52.114;5.718;2024-02-16T12:48:25;17.30;99.90
25504;DHT22;13410;52.114;5.718;2024-02-16T12:50:51;17.00;99.90
25504;DHT22;13410;52.114;5.718;2024-02-16T12:53:18;17.10;99.90
25504;DHT22;13410;52.114;5.718;2024-02-16T12:55:43;17.20;99.90
25504;DHT22;13410;52.114;5.718;2024-02-16T12:58:09;17.20;99.90
25504;DHT22;13410;52.114;5.718;2024-02-16T13:00:35;17.20;99.90
25504;DHT22;13410;52.114;5.718;2024-02-16T13:03:00;17.20;99.90
25504;DHT22;13410;52.114;5.718;2024-02-16T13:05:26;17.30;99.90
25504;DHT22;13410;52.114;5.718;2024-02-16T13:07:52;17.10;99.90
25504;DHT22;13410;52.114;5.718;2024-02-16T13:10:18;17.20;99.90
25504;DHT22;13410;52.114;5.718;2024-02-16T13:12:44;17.10;99.90
25504;DHT22;13410;52.114;5.718;2024-02-16T13:15:10;16.90;99.90
25504;DHT22;13410;52.114;5.718;2024-02-16T13:17:36;16.80;99.90
25504;DHT22;13410;52.114;5.718;2024-02-16T13:20:02;16.90;99.90
25504;DHT22;13410;52.114;5.718;2024-02-16T13:22:35;16.70;99.90
25504;DHT22;13410;52.114;5.718;2024-02-16T13:25:05;16.40;99.90
25504;DHT22;13410;52.114;5.718;2024-02-16T13:27:33;16.40;99.90
25504;DHT22;13410;52.114;5.718;2024-02-16T13:30:00;16.60;99.90
25504;DHT22;13410;52.114;5.718;2024-02-16T13:32:25;16.80;99.90
25504;DHT22;13410;52.114;5.718;2024-02-16T13:34:51;17.00;99.90
25504;DHT22;13410;52.114;5.718;2024-02-16T13:37:17;17.10;99.90
25504;DHT22;13410;52.114;5.718;2024-02-16T13:39:42;17.40;99.90
25504;DHT22;13410;52.114;5.718;2024-02-16T13:42:08;17.50;99.90
25504;DHT22;13410;52.114;5.718;2024-02-16T13:44:34;17.60;99.90
25504;DHT22;13410;52.114;5.718;2024-02-16T13:47:00;17.60;99.90
25504;DHT22;13410;52.114;5.718;2024-02-16T13:49:26;17.50;99.90
25504;DHT22;13410;52.114;5.718;2024-02-16T13:51:51;17.30;99.90
25504;DHT22;13410;52.114;5.718;2024-02-16T13:54:17;17.30;99.90
25504;DHT22;13410;52.114;5.718;2024-02-16T13:56:43;17.30;99.90
25504;DHT22;13410;52.114;5.718;2024-02-16T13:59:08;17.00;99.90
25504;DHT22;13410;52.114;5.718;2024-02-16T14:01:34;17.00;99.90
25504;DHT22;13410;52.114;5.718;2024-02-16T14:04:01;16.60;99.90
25504;DHT22;13410;52.114;5.718;2024-02-16T14:06:28;16.70;99.90
25504;DHT22;13410;52.114;5.718;2024-02-16T14:08:54;16.70;99.90
25504;DHT22;13410;52.114;5.718;2024-02-16T14:11:21;16.60;99.90
25504;DHT22;13410;52.114;5.718;2024-02-16T14:13:48;16.60;99.90
25504;DHT22;13410;52.114;5.718;2024-02-16T14:16:14;16.70;99.90
25504;DHT22;13410;52.114;5.718;2024-02-16T14:18:39;16.90;99.90
25504;DHT22;13410;52.114;5.718;2024-02-16T14:21:05;17.00;99.90
25504;DHT22;13410;52.114;5.718;2024-02-16T14:23:31;17.20;99.90
25504;DHT22;13410;52.114;5.718;2024-02-16T14:25:57;17.00;99.90
25504;DHT22;13410;52.114;5.718;2024-02-16T14:28:23;16.90;99.90
25504;DHT22;13410;52.114;5.718;2024-02-16T14:30:49;16.70;99.90
25504;DHT22;13410;52.114;5.718;2024-02-16T14:33:16;16.60;99.90
25504;DHT22;13410;52.114;5.718;2024-02-16T14:35:43;16.60;99.90
25504;DHT22;13410;52.114;5.718;2024-02-16T14:38:08;16.70;99.90
25504;DHT22;13410;52.114;5.718;2024-02-16T14:40:34;16.90;99.90
25504;DHT22;13410;52.114;5.718;2024-02-16T14:43:00;16.90;99.90
25504;DHT22;13410;52.114;5.718;2024-02-16T14:45:26;16.90;99.90
25504;DHT22;13410;52.114;5.718;2024-02-16T14:47:51;16.90;99.90
25504;DHT22;13410;52.114;5.718;2024-02-16T14:50:17;16.80;99.90
25504;DHT22;13410;52.114;5.718;2024-02-16T14:52:43;16.80;99.90
25504;DHT22;13410;52.114;5.718;2024-02-16T14:55:10;16.80;99.90
25504;DHT22;13410;52.114;5.718;2024-02-16T14:57:40;16.80;99.90
25504;DHT22;13410;52.114;5.718;2024-02-16T15:00:07;16.70;99.90
25504;DHT22;13410;52.114;5.718;2024-02-16T15:02:34;16.70;99.90
25504;DHT22;13410;52.114;5.718;2024-02-16T15:04:59;16.80;99.90
25504;DHT22;13410;52.114;5.718;2024-02-16T15:07:25;16.90;99.90
25504;DHT22;13410;52.114;5.718;2024-02-16T15:09:51;16.80;99.90
25504;DHT22;13410;52.114;5.718;2024-02-16T15:12:16;16.90;99.90
25504;DHT22;13410;52.114;5.718;2024-02-16T15:14:47;17.00;99.90
25504;DHT22;13410;52.114;5.718;2024-02-16T15:17:14;16.90;99.90
25504;DHT22;13410;52.114;5.718;2024-02-16T15:19:40;16.80;99.90
25504;DHT22;13410;52.114;5.718;2024-02-16T15:22:07;17.00;99.90
25504;DHT22;13410;52.114;5.718;2024-02-16T15:24:32;17.00;99.90
25504;DHT22;13410;52.114;5.718;2024-02-16T15:26:59;17.00;99.90
25504;DHT22;13410;52.114;5.718;2024-02-16T15:29:26;17.10;99.90
25504;DHT22;13410;52.114;5.718;2024-02-16T15:31:52;17.00;99.90